createdAt,value
2022-10-15T00:00:22.946Z,50.849564
2022-10-15T00:01:22.998Z,50.849525
2022-10-15T00:02:22.948Z,50.849506
2022-10-15T00:03:22.923Z,50.849522
2022-10-15T00:04:22.911Z,50.849525
2022-10-15T00:05:22.924Z,50.849533
2022-10-15T00:06:22.885Z,50.849537
2022-10-15T00:07:23.301Z,50.849548
2022-10-15T00:08:22.890Z,50.849537
2022-10-15T00:09:22.864Z,50.849541
2022-10-15T00:10:22.842Z,50.849506
2022-10-15T00:11:22.844Z,50.849533
2022-10-15T00:12:22.836Z,50.849525
2022-10-15T00:13:22.875Z,50.849537
2022-10-15T00:14:22.818Z,50.849548
2022-10-15T00:15:22.810Z,50.849525
2022-10-15T00:16:22.798Z,50.849525
2022-10-15T00:17:23.114Z,50.849514
2022-10-15T00:18:22.810Z,50.849518
2022-10-15T00:19:22.778Z,50.849514
2022-10-15T00:20:22.801Z,50.849525
2022-10-15T00:21:22.753Z,50.849529
2022-10-15T00:22:22.883Z,50.849506
2022-10-15T00:23:22.737Z,50.849514
2022-10-15T00:24:22.748Z,50.849537
2022-10-15T00:25:22.722Z,50.849529
2022-10-15T00:26:22.704Z,50.849522
2022-10-15T00:27:22.708Z,50.849506
2022-10-15T00:28:22.719Z,50.849510
2022-10-15T00:29:22.700Z,50.849522
2022-10-15T00:30:22.699Z,50.849522
2022-10-15T00:31:22.669Z,50.849525
2022-10-15T00:32:22.848Z,50.849522
2022-10-15T00:33:22.650Z,50.849533
2022-10-15T00:34:22.648Z,50.849525
2022-10-15T00:35:22.634Z,50.849522
2022-10-15T00:36:22.642Z,50.849514
2022-10-15T00:37:22.619Z,50.849518
2022-10-15T00:38:22.603Z,50.849514
2022-10-15T00:39:22.627Z,50.849503
2022-10-15T00:40:22.587Z,50.849506
2022-10-15T00:41:22.589Z,50.849506
2022-10-15T00:42:22.848Z,50.849522
2022-10-15T00:43:22.576Z,50.849510
2022-10-15T00:44:22.568Z,50.849499
2022-10-15T00:45:22.557Z,50.849499
2022-10-15T00:46:22.543Z,50.849495
2022-10-15T00:47:22.529Z,50.849495
2022-10-15T00:48:22.552Z,50.849491
2022-10-15T00:49:22.513Z,50.849518
2022-10-15T00:50:22.508Z,50.849506
2022-10-15T00:51:22.498Z,50.849518
2022-10-15T00:52:22.702Z,50.849503
2022-10-15T00:53:22.499Z,50.849495
2022-10-15T00:54:22.468Z,50.849491
2022-10-15T00:55:22.470Z,50.849510
2022-10-15T00:56:22.459Z,50.849510
2022-10-15T00:57:22.452Z,50.849487
2022-10-15T00:58:22.446Z,50.849506
2022-10-15T00:59:22.451Z,50.849525
2022-10-15T01:00:22.422Z,50.849464
2022-10-15T01:01:22.501Z,50.849472
2022-10-15T01:02:22.690Z,50.849514
2022-10-15T01:03:22.403Z,50.849522
2022-10-15T01:04:22.393Z,50.849522
2022-10-15T01:05:22.406Z,50.849503
2022-10-15T01:06:22.385Z,50.849506
2022-10-15T01:07:22.362Z,50.849472
2022-10-15T01:08:22.350Z,50.849522
2022-10-15T01:09:22.342Z,50.849529
2022-10-15T01:10:22.340Z,50.849537
2022-10-15T01:11:22.357Z,50.849518
2022-10-15T01:12:22.605Z,50.849495
2022-10-15T01:13:22.308Z,50.849461
2022-10-15T01:14:22.293Z,50.849518
2022-10-15T01:15:22.311Z,50.849499
2022-10-15T01:16:22.283Z,50.849468
2022-10-15T01:17:22.714Z,50.849506
2022-10-15T01:18:22.334Z,50.849525
2022-10-15T01:19:22.352Z,50.849506
2022-10-15T01:20:22.232Z,50.849537
2022-10-15T01:21:22.247Z,50.849556
2022-10-15T01:22:22.244Z,50.849541
2022-10-15T01:23:25.117Z,50.849506
2022-10-15T01:24:22.223Z,50.849522
2022-10-15T01:25:22.213Z,50.849487
2022-10-15T01:26:22.186Z,50.849514
2022-10-15T01:27:22.612Z,50.849506
2022-10-15T01:28:22.211Z,50.849510
2022-10-15T01:29:22.193Z,50.849506
2022-10-15T01:30:22.165Z,50.849518
2022-10-15T01:31:22.142Z,50.849518
2022-10-15T01:32:22.145Z,50.849506
2022-10-15T01:33:22.130Z,50.849525
2022-10-15T01:34:22.435Z,50.849503
2022-10-15T01:35:22.125Z,50.849537
2022-10-15T01:36:22.132Z,50.849541
2022-10-15T01:37:22.481Z,50.849545
2022-10-15T01:38:22.077Z,50.849537
2022-10-15T01:39:22.067Z,50.849514
2022-10-15T01:40:22.063Z,50.849529
2022-10-15T01:41:22.077Z,50.849518
2022-10-15T01:42:22.085Z,50.849522
2022-10-15T01:44:22.025Z,50.849518
2022-10-15T01:45:22.021Z,50.849514
2022-10-15T01:46:22.011Z,50.849510
2022-10-15T01:47:22.286Z,50.849506
2022-10-15T01:48:21.992Z,50.849506
2022-10-15T01:49:21.990Z,50.849529
2022-10-15T01:50:21.977Z,50.849522
2022-10-15T01:51:21.959Z,50.849506
2022-10-15T01:52:22.006Z,50.849499
2022-10-15T01:53:21.991Z,50.849506
2022-10-15T01:54:21.933Z,50.849506
2022-10-15T01:55:21.923Z,50.849525
2022-10-15T01:56:21.920Z,50.849533
2022-10-15T01:57:22.298Z,50.849529
2022-10-15T01:58:21.902Z,50.849537
2022-10-15T01:59:21.926Z,50.849529
2022-10-15T02:00:21.883Z,50.849522
2022-10-15T02:01:21.925Z,50.849525
2022-10-15T02:02:22.304Z,50.849506
2022-10-15T02:03:21.859Z,50.849533
2022-10-15T02:04:21.880Z,50.849506
2022-10-15T02:05:21.872Z,50.849518
2022-10-15T02:06:21.824Z,50.849525
2022-10-15T02:07:21.825Z,50.849533
2022-10-15T02:08:21.816Z,50.849564
2022-10-15T02:09:21.891Z,50.849525
2022-10-15T02:10:21.820Z,50.849480
2022-10-15T02:11:21.782Z,50.849510
2022-10-15T02:12:22.183Z,50.849529
2022-10-15T02:13:21.786Z,50.849510
2022-10-15T02:14:21.761Z,50.849533
2022-10-15T02:15:21.751Z,50.849503
2022-10-15T02:16:21.765Z,50.849476
2022-10-15T02:17:21.729Z,50.849499
2022-10-15T02:18:21.735Z,50.849483
2022-10-15T02:19:21.720Z,50.849525
2022-10-15T02:20:21.720Z,50.849552
2022-10-15T02:21:21.722Z,50.849480
2022-10-15T02:22:22.087Z,50.849483
2022-10-15T02:23:21.678Z,50.849487
2022-10-15T02:24:21.668Z,50.849514
2022-10-15T02:25:21.660Z,50.849525
2022-10-15T02:26:21.648Z,50.849499
2022-10-15T02:27:21.653Z,50.849464
2022-10-15T02:28:21.727Z,50.849487
2022-10-15T02:29:21.628Z,50.849499
2022-10-15T02:30:21.616Z,50.849487
2022-10-15T02:31:21.629Z,50.849522
2022-10-15T02:32:21.974Z,50.849522
2022-10-15T02:33:21.603Z,50.849541
2022-10-15T02:34:21.584Z,50.849545
2022-10-15T02:35:21.572Z,50.849548
2022-10-15T02:36:21.561Z,50.849541
2022-10-15T02:37:21.544Z,50.849510
2022-10-15T02:38:21.617Z,50.849495
2022-10-15T02:39:21.536Z,50.849529
2022-10-15T02:40:21.522Z,50.849514
2022-10-15T02:41:21.514Z,50.849537
2022-10-15T02:42:21.691Z,50.849533
2022-10-15T02:43:21.501Z,50.849522
2022-10-15T02:44:21.525Z,50.849514
2022-10-15T02:45:21.484Z,50.849529
2022-10-15T02:46:21.485Z,50.849514
2022-10-15T02:47:21.518Z,50.849522
2022-10-15T02:48:21.467Z,50.849533
2022-10-15T02:49:21.446Z,50.849518
2022-10-15T02:50:21.458Z,50.849503
2022-10-15T02:51:21.439Z,50.849525
2022-10-15T02:52:21.697Z,50.849518
2022-10-15T02:53:21.428Z,50.849514
2022-10-15T02:54:21.424Z,50.849533
2022-10-15T02:55:21.436Z,50.849552
2022-10-15T02:56:21.456Z,50.849545
2022-10-15T02:57:21.735Z,50.849552
2022-10-15T02:58:21.375Z,50.849541
2022-10-15T02:59:21.365Z,50.849567
2022-10-15T03:00:21.372Z,50.849564
2022-10-15T03:01:21.376Z,50.849548
2022-10-15T03:02:21.374Z,50.849571
2022-10-15T03:03:21.324Z,50.849583
2022-10-15T03:04:21.320Z,50.849556
2022-10-15T03:05:21.330Z,50.849560
2022-10-15T03:06:21.370Z,50.849548
2022-10-15T03:07:21.504Z,50.849564
2022-10-15T03:08:21.325Z,50.849541
2022-10-15T03:09:21.287Z,50.849560
2022-10-15T03:10:21.305Z,50.849556
2022-10-15T03:11:21.267Z,50.849552
2022-10-15T03:12:21.257Z,50.849598
2022-10-15T03:13:21.247Z,50.849529
2022-10-15T03:14:21.306Z,50.849548
2022-10-15T03:15:21.227Z,50.849541
2022-10-15T03:16:21.224Z,50.849564
2022-10-15T03:17:21.601Z,50.849556
2022-10-15T03:18:21.193Z,50.849510
2022-10-15T03:19:21.206Z,50.849579
2022-10-15T03:20:21.176Z,50.849548
2022-10-15T03:21:21.175Z,50.849560
2022-10-15T03:22:21.169Z,50.849560
2022-10-15T03:23:21.169Z,50.849567
2022-10-15T03:24:21.169Z,50.849583
2022-10-15T03:25:21.167Z,50.849552
2022-10-15T03:26:21.139Z,50.849548
2022-10-15T03:27:21.269Z,50.849541
2022-10-15T03:28:21.160Z,50.849556
2022-10-15T03:29:21.109Z,50.849537
2022-10-15T03:30:21.100Z,50.849567
2022-10-15T03:31:21.114Z,50.849564
2022-10-15T03:32:21.075Z,50.849541
2022-10-15T03:33:23.159Z,50.849518
2022-10-15T03:34:21.050Z,50.849518
2022-10-15T03:35:21.048Z,50.849529
2022-10-15T03:36:21.040Z,50.849533
2022-10-15T03:37:21.338Z,50.849510
2022-10-15T03:38:21.046Z,50.849514
2022-10-15T03:39:21.025Z,50.849533
2022-10-15T03:40:21.005Z,50.849545
2022-10-15T03:41:21.002Z,50.849522
2022-10-15T03:42:21.199Z,50.849533
2022-10-15T03:43:20.993Z,50.849529
2022-10-15T03:44:21.001Z,50.849541
2022-10-15T03:45:20.964Z,50.849537
2022-10-15T03:46:20.960Z,50.849529
2022-10-15T03:47:20.955Z,50.849514
2022-10-15T03:48:20.951Z,50.849503
2022-10-15T03:49:20.947Z,50.849499
2022-10-15T03:50:20.943Z,50.849529
2022-10-15T03:51:24.497Z,50.849514
2022-10-15T03:52:22.254Z,50.849533
2022-10-15T03:53:20.906Z,50.849495
2022-10-15T03:54:20.889Z,50.849533
2022-10-15T03:55:20.883Z,50.849533
2022-10-15T03:56:20.896Z,50.849522
2022-10-15T03:57:20.855Z,50.849522
2022-10-15T03:58:20.862Z,50.849522
2022-10-15T03:59:20.847Z,50.849506
2022-10-15T04:00:20.833Z,50.849506
2022-10-15T04:01:20.875Z,50.849518
2022-10-15T04:02:21.098Z,50.849541
2022-10-15T04:03:20.806Z,50.849525
2022-10-15T04:04:20.801Z,50.849545
2022-10-15T04:05:20.794Z,50.849503
2022-10-15T04:06:20.787Z,50.849461
2022-10-15T04:07:20.833Z,50.849506
2022-10-15T04:08:20.766Z,50.849503
2022-10-15T04:09:20.759Z,50.849514
2022-10-15T04:10:20.747Z,50.849525
2022-10-15T04:11:20.738Z,50.849503
2022-10-15T04:12:20.909Z,50.849476
2022-10-15T04:13:20.736Z,50.849480
2022-10-15T04:14:20.707Z,50.849480
2022-10-15T04:15:20.696Z,50.849472
2022-10-15T04:16:20.687Z,50.849464
2022-10-15T04:17:21.412Z,50.849480
2022-10-15T04:18:20.692Z,50.849476
2022-10-15T04:19:20.676Z,50.849480
2022-10-15T04:20:20.679Z,50.849487
2022-10-15T04:21:20.651Z,50.849495
2022-10-15T04:22:20.826Z,50.849529
2022-10-15T04:23:20.634Z,50.849522
2022-10-15T04:24:20.622Z,50.849522
2022-10-15T04:25:20.613Z,50.849495
2022-10-15T04:26:20.629Z,50.849506
2022-10-15T04:27:20.609Z,50.849522
2022-10-15T04:28:20.654Z,50.849529
2022-10-15T04:29:20.590Z,50.849518
2022-10-15T04:30:20.571Z,50.849499
2022-10-15T04:31:20.557Z,50.849495
2022-10-15T04:32:20.726Z,50.849453
2022-10-15T04:33:20.544Z,50.849483
2022-10-15T04:34:20.530Z,50.849525
2022-10-15T04:35:20.547Z,50.849503
2022-10-15T04:36:20.557Z,50.849495
2022-10-15T04:37:20.774Z,50.849506
2022-10-15T04:38:20.508Z,50.849491
2022-10-15T04:39:20.495Z,50.849499
2022-10-15T04:40:20.482Z,50.849476
2022-10-15T04:41:20.471Z,50.849453
2022-10-15T04:42:20.469Z,50.849438
2022-10-15T04:43:20.475Z,50.849483
2022-10-15T04:44:20.446Z,50.849495
2022-10-15T04:45:20.533Z,50.849495
2022-10-15T04:46:20.426Z,50.849510
2022-10-15T04:47:20.665Z,50.849514
2022-10-15T04:48:20.405Z,50.849506
2022-10-15T04:49:20.410Z,50.849506
2022-10-15T04:50:20.384Z,50.849506
2022-10-15T04:51:20.382Z,50.849506
2022-10-15T04:52:20.372Z,50.849480
2022-10-15T04:53:20.375Z,50.849503
2022-10-15T04:54:20.435Z,50.849476
2022-10-15T04:55:20.371Z,50.849495
2022-10-15T04:56:20.326Z,50.849510
2022-10-15T04:57:20.624Z,50.849487
2022-10-15T04:58:20.334Z,50.849506
2022-10-15T04:59:20.310Z,50.849503
2022-10-15T05:00:20.307Z,50.849525
2022-10-15T05:01:20.310Z,50.849495
2022-10-15T05:02:20.369Z,50.849487
2022-10-15T05:03:20.314Z,50.849483
2022-10-15T05:04:20.277Z,50.849491
2022-10-15T05:05:20.262Z,50.849468
2022-10-15T05:06:20.248Z,50.849491
2022-10-15T05:07:20.296Z,50.849480
2022-10-15T05:08:20.237Z,50.849514
2022-10-15T05:09:20.232Z,50.849495
2022-10-15T05:10:20.223Z,50.849483
2022-10-15T05:11:27.721Z,50.849483
2022-10-15T05:12:20.192Z,50.849487
2022-10-15T05:13:20.233Z,50.849476
2022-10-15T05:14:20.202Z,50.849499
2022-10-15T05:15:20.173Z,50.849499
2022-10-15T05:16:20.179Z,50.849499
2022-10-15T05:17:20.188Z,50.849510
2022-10-15T05:18:20.161Z,50.849506
2022-10-15T05:19:20.178Z,50.849480
2022-10-15T05:20:20.133Z,50.849483
2022-10-15T05:21:20.144Z,50.849487
2022-10-15T05:22:20.377Z,50.849480
2022-10-15T05:23:20.108Z,50.849464
2022-10-15T05:24:20.124Z,50.849449
2022-10-15T05:25:20.097Z,50.849472
2022-10-15T05:26:20.074Z,50.849472
2022-10-15T05:27:20.071Z,50.849514
2022-10-15T05:28:20.099Z,50.849525
2022-10-15T05:29:20.090Z,50.849533
2022-10-15T05:30:20.054Z,50.849533
2022-10-15T05:31:20.046Z,50.849499
2022-10-15T05:33:20.039Z,50.849499
2022-10-15T05:34:20.011Z,50.849491
2022-10-15T05:35:20.022Z,50.849487
2022-10-15T05:36:20.125Z,50.849483
2022-10-15T05:37:19.977Z,50.849472
2022-10-15T05:38:19.980Z,50.849499
2022-10-15T05:39:19.965Z,50.849514
2022-10-15T05:40:21.968Z,50.849487
2022-10-15T05:41:19.938Z,50.849495
2022-10-15T05:42:19.954Z,50.849495
2022-10-15T05:43:19.924Z,50.849491
2022-10-15T05:44:19.927Z,50.849468
2022-10-15T05:45:19.911Z,50.849461
2022-10-15T05:46:19.957Z,50.849461
2022-10-15T05:47:19.910Z,50.849476
2022-10-15T05:48:19.892Z,50.849468
2022-10-15T05:49:19.876Z,50.849464
2022-10-15T05:50:19.870Z,50.849449
2022-10-15T05:51:19.888Z,50.849442
2022-10-15T05:52:20.583Z,50.849480
2022-10-15T05:53:20.129Z,50.849461
2022-10-15T05:54:19.826Z,50.849468
2022-10-15T05:55:19.817Z,50.849491
2022-10-15T05:56:19.809Z,50.849503
2022-10-15T05:57:19.835Z,50.849499
2022-10-15T05:58:20.507Z,50.849495
2022-10-15T05:59:19.790Z,50.849499
2022-10-15T06:00:19.771Z,50.849499
2022-10-15T06:06:40.814Z,50.849483
2022-10-15T06:07:40.812Z,50.849487
2022-10-15T06:08:40.824Z,50.849514
2022-10-15T06:09:41.355Z,50.849510
2022-10-15T06:10:40.768Z,50.849522
2022-10-15T06:11:40.794Z,50.849495
2022-10-15T06:12:40.763Z,50.849483
2022-10-15T06:13:40.766Z,50.849506
2022-10-15T06:14:40.749Z,50.849499
2022-10-15T06:15:40.738Z,50.849514
2022-10-15T06:16:40.741Z,50.849503
2022-10-15T06:17:40.736Z,50.849518
2022-10-15T06:18:40.716Z,50.849506
2022-10-15T06:19:40.713Z,50.849495
2022-10-15T06:20:40.799Z,50.849495
2022-10-15T06:21:40.680Z,50.849483
2022-10-15T06:22:40.713Z,50.849483
2022-10-15T06:23:40.697Z,50.849503
2022-10-15T06:24:40.651Z,50.849503
2022-10-15T06:25:40.646Z,50.849518
2022-10-15T06:26:40.680Z,50.849518
2022-10-15T06:27:40.638Z,50.849514
2022-10-15T06:28:41.581Z,50.849533
2022-10-15T06:29:40.610Z,50.849533
2022-10-15T06:30:40.598Z,50.849514
2022-10-15T06:31:40.664Z,50.849518
2022-10-15T06:32:40.600Z,50.849518
2022-10-15T06:33:40.576Z,50.849522
2022-10-15T06:34:40.584Z,50.849541
2022-10-15T06:35:40.573Z,50.849537
2022-10-15T06:36:40.540Z,50.849518
2022-10-15T06:37:40.535Z,50.849537
2022-10-15T06:38:40.789Z,50.849545
2022-10-15T06:39:40.796Z,50.849522
2022-10-15T06:40:40.753Z,50.849533
2022-10-15T06:41:40.503Z,50.849525
2022-10-15T06:42:40.486Z,50.849518
2022-10-15T06:43:40.528Z,50.849510
2022-10-15T06:44:40.512Z,50.849522
2022-10-15T06:45:40.466Z,50.849518
2022-10-15T06:46:40.457Z,50.849529
2022-10-15T06:47:40.441Z,50.849545
2022-10-15T06:48:40.446Z,50.849510
2022-10-15T06:49:40.470Z,50.849525
2022-10-15T06:50:40.455Z,50.849541
2022-10-15T06:51:40.415Z,50.849495
2022-10-15T06:52:40.411Z,50.849545
2022-10-15T06:53:40.423Z,50.849548
2022-10-15T06:54:40.395Z,50.849529
2022-10-15T06:55:40.399Z,50.849533
2022-10-15T06:56:40.405Z,50.849510
2022-10-15T06:57:40.387Z,50.849529
2022-10-15T06:58:40.384Z,50.849491
2022-10-15T06:59:41.519Z,50.849545
2022-10-15T07:00:40.461Z,50.849552
2022-10-15T07:01:42.310Z,50.849529
2022-10-15T07:02:40.318Z,50.849556
2022-10-15T07:03:40.310Z,50.849606
2022-10-15T07:04:40.329Z,50.849541
2022-10-15T07:05:40.328Z,50.849541
2022-10-15T07:06:40.291Z,50.849541
2022-10-15T07:07:40.279Z,50.849518
2022-10-15T07:08:40.269Z,50.849525
2022-10-15T07:09:40.284Z,50.849583
2022-10-15T07:10:40.294Z,50.849514
2022-10-15T07:11:40.277Z,50.849438
2022-10-15T07:12:40.279Z,50.849541
2022-10-15T07:13:40.242Z,50.849575
2022-10-15T07:14:42.397Z,50.849545
2022-10-15T07:15:40.243Z,50.849571
2022-10-15T07:16:40.379Z,50.849583
2022-10-15T07:17:40.301Z,50.849567
2022-10-15T07:18:40.265Z,50.849525
2022-10-15T07:19:40.313Z,50.849567
2022-10-15T07:20:40.154Z,50.849522
2022-10-15T07:21:40.171Z,50.849506
2022-10-15T07:22:40.139Z,50.849491
2022-10-15T07:23:40.122Z,50.849529
2022-10-15T07:24:40.151Z,50.849533
2022-10-15T07:25:40.106Z,50.849537
2022-10-15T07:26:40.105Z,50.849506
2022-10-15T07:27:40.132Z,50.849514
2022-10-15T07:28:40.154Z,50.849545
2022-10-15T07:29:40.130Z,50.849522
2022-10-15T07:30:40.091Z,50.849560
2022-10-15T07:31:40.111Z,50.849545
2022-10-15T07:32:40.059Z,50.849548
2022-10-15T07:33:40.056Z,50.849552
2022-10-15T07:34:40.041Z,50.849609
2022-10-15T07:35:40.033Z,50.849552
2022-10-15T07:36:40.071Z,50.849533
2022-10-15T07:37:40.009Z,50.849552
2022-10-15T07:38:40.000Z,50.849552
2022-10-15T07:39:40.989Z,50.849548
2022-10-15T07:40:39.990Z,50.849571
2022-10-15T07:41:39.970Z,50.849575
2022-10-15T07:42:40.289Z,50.849567
2022-10-15T07:43:39.962Z,50.849586
2022-10-15T07:44:40.004Z,50.849552
2022-10-15T07:45:39.992Z,50.849556
2022-10-15T07:46:39.939Z,50.849564
2022-10-15T07:47:39.920Z,50.849560
2022-10-15T07:48:39.922Z,50.849571
2022-10-15T07:49:39.906Z,50.849556
2022-10-15T07:50:41.712Z,50.849567
2022-10-15T07:51:39.916Z,50.849575
2022-10-15T07:52:39.886Z,50.849583
2022-10-15T07:53:39.879Z,50.849567
2022-10-15T07:54:39.856Z,50.849548
2022-10-15T07:55:39.852Z,50.849541
2022-10-15T07:56:39.844Z,50.849552
2022-10-15T07:57:39.852Z,50.849567
2022-10-15T07:58:39.849Z,50.849567
2022-10-15T07:59:39.808Z,50.849552
2022-10-15T08:00:39.837Z,50.849545
2022-10-15T08:01:39.797Z,50.849552
2022-10-15T08:02:39.806Z,50.849560
2022-10-15T08:03:39.780Z,50.849575
2022-10-15T08:04:39.771Z,50.849571
2022-10-15T08:05:39.792Z,50.849556
2022-10-15T08:06:39.861Z,50.849567
2022-10-15T08:07:39.759Z,50.849579
2022-10-15T08:08:39.746Z,50.849594
2022-10-15T08:09:39.786Z,50.849575
2022-10-15T08:10:39.734Z,50.849560
2022-10-15T08:11:39.744Z,50.849556
2022-10-15T08:12:39.725Z,50.849552
2022-10-15T08:13:39.698Z,50.849564
2022-10-15T08:14:39.749Z,50.849552
2022-10-15T08:15:39.681Z,50.849548
2022-10-15T08:16:39.670Z,50.849541
2022-10-15T08:17:39.677Z,50.849545
2022-10-15T08:18:39.735Z,50.849564
2022-10-15T08:19:39.651Z,50.849571
2022-10-15T08:20:39.640Z,50.849575
2022-10-15T08:21:40.929Z,50.849575
2022-10-15T08:22:39.614Z,50.849556
2022-10-15T08:23:39.652Z,50.849560
2022-10-15T08:24:39.597Z,50.849548
2022-10-15T08:25:39.593Z,50.849567
2022-10-15T08:26:39.584Z,50.849571
2022-10-15T08:27:39.574Z,50.849586
2022-10-15T08:28:39.731Z,50.849564
2022-10-15T08:29:39.590Z,50.849556
2022-10-15T08:30:39.561Z,50.849571
2022-10-15T08:31:39.598Z,50.849571
2022-10-15T08:32:39.532Z,50.849564
2022-10-15T08:33:39.538Z,50.849564
2022-10-15T08:34:39.530Z,50.849556
2022-10-15T08:35:39.500Z,50.849556
2022-10-15T08:36:39.492Z,50.849564
2022-10-15T08:37:39.508Z,50.849556
2022-10-15T08:38:39.474Z,50.849548
2022-10-15T08:39:39.468Z,50.849541
2022-10-15T08:40:39.465Z,50.849541
2022-10-15T08:41:39.450Z,50.849575
2022-10-15T08:42:39.471Z,50.849575
2022-10-15T08:43:39.437Z,50.849552
2022-10-15T08:44:39.430Z,50.849552
2022-10-15T08:45:39.439Z,50.849548
2022-10-15T08:46:39.417Z,50.849548
2022-10-15T08:47:39.402Z,50.849522
2022-10-15T08:48:39.472Z,50.849529
2022-10-15T08:49:39.381Z,50.849552
2022-10-15T08:50:39.364Z,50.849560
2022-10-15T08:51:39.359Z,50.849556
2022-10-15T08:52:39.474Z,50.849556
2022-10-15T08:53:39.341Z,50.849545
2022-10-15T08:54:39.430Z,50.849564
2022-10-15T08:55:39.394Z,50.849552
2022-10-15T08:56:39.321Z,50.849545
2022-10-15T08:57:39.298Z,50.849560
2022-10-15T08:58:40.451Z,50.849545
2022-10-15T08:59:39.313Z,50.849545
2022-10-15T09:00:39.277Z,50.849548
2022-10-15T09:01:39.278Z,50.849541
2022-10-15T09:02:39.317Z,50.849533
2022-10-15T09:03:39.264Z,50.849529
2022-10-15T09:04:39.356Z,50.849525
2022-10-15T09:05:39.241Z,50.849529
2022-10-15T09:06:39.246Z,50.849529
2022-10-15T09:07:39.235Z,50.849541
2022-10-15T09:08:39.221Z,50.849541
2022-10-15T09:09:39.254Z,50.849552
2022-10-15T09:10:39.259Z,50.849571
2022-10-15T09:11:39.192Z,50.849529
2022-10-15T09:12:39.198Z,50.849529
2022-10-15T09:13:39.203Z,50.849533
2022-10-15T09:14:39.204Z,50.849525
2022-10-15T09:15:39.169Z,50.849537
2022-10-15T09:16:39.167Z,50.849545
2022-10-15T09:17:39.152Z,50.849541
2022-10-15T09:18:39.143Z,50.849537
2022-10-15T09:19:39.133Z,50.849533
2022-10-15T09:20:39.436Z,50.849525
2022-10-15T09:21:39.116Z,50.849541
2022-10-15T09:22:39.201Z,50.849514
2022-10-15T09:23:39.089Z,50.849525
2022-10-15T09:24:39.091Z,50.849541
2022-10-15T09:25:39.110Z,50.849537
2022-10-15T09:26:39.083Z,50.849556
2022-10-15T09:27:39.066Z,50.849533
2022-10-15T09:28:39.145Z,50.849533
2022-10-15T09:29:39.080Z,50.849537
2022-10-15T09:30:39.039Z,50.849560
2022-10-15T09:31:39.038Z,50.849522
2022-10-15T09:32:39.027Z,50.849529
2022-10-15T09:33:39.019Z,50.849545
2022-10-15T09:34:39.086Z,50.849545
2022-10-15T09:35:39.035Z,50.849556
2022-10-15T09:36:39.000Z,50.849556
2022-10-15T09:37:38.990Z,50.849545
2022-10-15T09:38:38.979Z,50.849537
2022-10-15T09:39:38.977Z,50.849556
2022-10-15T09:40:38.958Z,50.849552
2022-10-15T09:41:39.051Z,50.849552
2022-10-15T09:42:38.951Z,50.849541
2022-10-15T09:43:38.940Z,50.849537
2022-10-15T09:44:38.923Z,50.849529
2022-10-15T09:45:38.904Z,50.849529
2022-10-15T09:46:38.932Z,50.849510
2022-10-15T09:47:38.894Z,50.849529
2022-10-15T09:48:38.886Z,50.849522
2022-10-15T09:49:38.866Z,50.849506
2022-10-15T09:50:38.861Z,50.849499
2022-10-15T09:51:38.916Z,50.849514
2022-10-15T09:52:38.880Z,50.849506
2022-10-15T09:53:38.847Z,50.849506
2022-10-15T09:54:38.838Z,50.849487
2022-10-15T09:55:38.830Z,50.849514
2022-10-15T09:56:38.818Z,50.849495
2022-10-15T09:57:38.844Z,50.849491
2022-10-15T09:58:38.809Z,50.849522
2022-10-15T09:59:38.800Z,50.849506
2022-10-15T10:00:38.788Z,50.849491
2022-10-15T10:01:38.843Z,50.849506
2022-10-15T10:02:38.853Z,50.849514
2022-10-15T10:03:38.782Z,50.849522
2022-10-15T10:04:38.755Z,50.849518
2022-10-15T10:05:38.742Z,50.849487
2022-10-15T10:06:38.739Z,50.849499
2022-10-15T10:07:38.761Z,50.849449
2022-10-15T10:08:38.853Z,50.849495
2022-10-15T10:09:38.714Z,50.849510
2022-10-15T10:10:41.746Z,50.849491
2022-10-15T10:11:39.700Z,50.849483
2022-10-15T10:12:38.715Z,50.849476
2022-10-15T10:13:38.686Z,50.849487
2022-10-15T10:14:38.676Z,50.849464
2022-10-15T10:15:38.665Z,50.849487
2022-10-15T10:16:38.655Z,50.849506
2022-10-15T10:17:38.687Z,50.849487
2022-10-15T10:18:38.695Z,50.849533
2022-10-15T10:19:38.628Z,50.849518
2022-10-15T10:20:38.614Z,50.849510
2022-10-15T10:21:38.626Z,50.849510
2022-10-15T10:22:38.614Z,50.849510
2022-10-15T10:23:38.616Z,50.849503
2022-10-15T10:24:38.587Z,50.849487
2022-10-15T10:25:38.576Z,50.849449
2022-10-15T10:26:38.571Z,50.849464
2022-10-15T10:27:38.628Z,50.849495
2022-10-15T10:28:41.957Z,50.849514
2022-10-15T10:29:39.582Z,50.849518
2022-10-15T10:30:38.538Z,50.849514
2022-10-15T10:31:38.556Z,50.849522
2022-10-15T10:32:38.519Z,50.849510
2022-10-15T10:33:38.562Z,50.849506
2022-10-15T10:34:38.509Z,50.849522
2022-10-15T10:35:38.508Z,50.849548
2022-10-15T10:36:40.756Z,50.849514
2022-10-15T10:37:39.507Z,50.849552
2022-10-15T10:38:38.467Z,50.849503
2022-10-15T10:39:38.461Z,50.849483
2022-10-15T10:40:38.449Z,50.849495
2022-10-15T10:41:38.488Z,50.849518
2022-10-15T10:42:38.430Z,50.849510
2022-10-15T10:43:39.464Z,50.849445
2022-10-15T10:44:38.426Z,50.849495
2022-10-15T10:45:38.405Z,50.849476
2022-10-15T10:46:38.421Z,50.849495
2022-10-15T10:47:38.393Z,50.849533
2022-10-15T10:48:38.391Z,50.849503
2022-10-15T10:49:38.365Z,50.849457
2022-10-15T10:50:38.368Z,50.849503
2022-10-15T10:51:38.372Z,50.849529
2022-10-15T10:52:38.376Z,50.849518
2022-10-15T10:53:38.334Z,50.849495
2022-10-15T10:54:38.412Z,50.849537
2022-10-15T10:55:38.378Z,50.849525
2022-10-15T10:56:38.313Z,50.849510
2022-10-15T10:57:38.318Z,50.849548
2022-10-15T10:58:38.338Z,50.849548
2022-10-15T10:59:38.292Z,50.849567
2022-10-15T11:00:38.419Z,50.849518
2022-10-15T11:01:38.279Z,50.849461
2022-10-15T11:02:38.261Z,50.849472
2022-10-15T11:03:38.272Z,50.849514
2022-10-15T11:04:38.266Z,50.849453
2022-10-15T11:05:38.259Z,50.849480
2022-10-15T11:06:38.239Z,50.849464
2022-10-15T11:07:38.224Z,50.849426
2022-10-15T11:08:38.215Z,50.849522
2022-10-15T11:09:38.209Z,50.849541
2022-10-15T11:10:38.234Z,50.849499
2022-10-15T11:11:38.199Z,50.849506
2022-10-15T11:12:38.191Z,50.849537
2022-10-15T11:13:38.189Z,50.849464
2022-10-15T11:14:38.203Z,50.849495
2022-10-15T11:15:38.170Z,50.849510
2022-10-15T11:16:38.150Z,50.849499
2022-10-15T11:17:38.150Z,50.849472
2022-10-15T11:18:38.145Z,50.849468
2022-10-15T11:20:57.740Z,50.849503
2022-10-15T11:21:39.109Z,50.849510
2022-10-15T11:22:38.096Z,50.849506
2022-10-15T11:23:38.109Z,50.849480
2022-10-15T11:24:49.195Z,50.849461
2022-10-15T11:25:39.116Z,50.849491
2022-10-15T11:26:52.147Z,50.849525
2022-10-15T11:27:39.065Z,50.849522
2022-10-15T11:28:38.097Z,50.849518
2022-10-15T11:29:38.091Z,50.849522
2022-10-15T11:30:38.029Z,50.849499
2022-10-15T11:31:48.991Z,50.849525
2022-10-15T11:33:01.818Z,50.849514